sensor_id;sensor_type;location;lat;lon;timestamp;P1;durP1;ratioP1;P2;durP2;ratioP2
17598;SDS011;8918;52.092;5.232;2023-09-19T00:01:57;5.65;;;2.10;;
17598;SDS011;8918;52.092;5.232;2023-09-19T00:04:22;6.20;;;2.22;;
17598;SDS011;8918;52.092;5.232;2023-09-19T00:06:53;5.30;;;1.83;;
17598;SDS011;8918;52.092;5.232;2023-09-19T00:09:19;7.32;;;2.20;;
17598;SDS011;8918;52.092;5.232;2023-09-19T00:11:45;7.28;;;2.35;;
17598;SDS011;8918;52.092;5.232;2023-09-19T00:14:12;8.40;;;2.20;;
17598;SDS011;8918;52.092;5.232;2023-09-19T00:16:39;7.03;;;2.30;;
17598;SDS011;8918;52.092;5.232;2023-09-19T00:19:06;7.00;;;2.10;;
17598;SDS011;8918;52.092;5.232;2023-09-19T00:21:32;9.30;;;2.78;;
17598;SDS011;8918;52.092;5.232;2023-09-19T00:23:57;8.02;;;2.22;;
17598;SDS011;8918;52.092;5.232;2023-09-19T00:26:23;6.50;;;2.15;;
17598;SDS011;8918;52.092;5.232;2023-09-19T00:28:52;6.60;;;2.10;;
17598;SDS011;8918;52.092;5.232;2023-09-19T00:31:17;5.80;;;2.10;;
17598;SDS011;8918;52.092;5.232;2023-09-19T00:33:43;9.68;;;2.10;;
17598;SDS011;8918;52.092;5.232;2023-09-19T00:36:09;7.82;;;2.30;;
17598;SDS011;8918;52.092;5.232;2023-09-19T00:38:34;5.20;;;2.30;;
17598;SDS011;8918;52.092;5.232;2023-09-19T00:41:00;3.78;;;2.03;;
17598;SDS011;8918;52.092;5.232;2023-09-19T00:43:26;6.47;;;2.17;;
17598;SDS011;8918;52.092;5.232;2023-09-19T00:45:52;6.75;;;1.88;;
17598;SDS011;8918;52.092;5.232;2023-09-19T00:48:20;8.85;;;2.17;;
17598;SDS011;8918;52.092;5.232;2023-09-19T00:50:47;6.85;;;2.03;;
17598;SDS011;8918;52.092;5.232;2023-09-19T00:53:15;6.63;;;2.28;;
17598;SDS011;8918;52.092;5.232;2023-09-19T00:55:45;5.88;;;2.20;;
17598;SDS011;8918;52.092;5.232;2023-09-19T00:58:12;5.93;;;2.10;;
17598;SDS011;8918;52.092;5.232;2023-09-19T01:00:38;7.15;;;2.00;;
17598;SDS011;8918;52.092;5.232;2023-09-19T01:03:05;5.57;;;2.13;;
17598;SDS011;8918;52.092;5.232;2023-09-19T01:05:31;8.13;;;1.88;;
17598;SDS011;8918;52.092;5.232;2023-09-19T01:07:58;7.75;;;2.10;;
17598;SDS011;8918;52.092;5.232;2023-09-19T01:10:24;4.97;;;2.20;;
17598;SDS011;8918;52.092;5.232;2023-09-19T01:24:15;5.43;;;2.03;;
17598;SDS011;8918;52.092;5.232;2023-09-19T01:29:39;6.03;;;2.05;;
17598;SDS011;8918;52.092;5.232;2023-09-19T01:32:09;6.28;;;1.98;;
17598;SDS011;8918;52.092;5.232;2023-09-19T01:34:55;5.43;;;2.20;;
17598;SDS011;8918;52.092;5.232;2023-09-19T01:37:24;7.72;;;2.20;;
17598;SDS011;8918;52.092;5.232;2023-09-19T01:39:57;5.90;;;2.10;;
17598;SDS011;8918;52.092;5.232;2023-09-19T01:51:42;4.50;;;1.90;;
17598;SDS011;8918;52.092;5.232;2023-09-19T01:54:18;7.68;;;2.17;;
17598;SDS011;8918;52.092;5.232;2023-09-19T01:56:54;4.35;;;1.80;;
17598;SDS011;8918;52.092;5.232;2023-09-19T01:59:31;6.57;;;2.00;;
17598;SDS011;8918;52.092;5.232;2023-09-19T02:02:01;6.53;;;2.15;;
17598;SDS011;8918;52.092;5.232;2023-09-19T02:04:30;9.95;;;2.60;;
17598;SDS011;8918;52.092;5.232;2023-09-19T02:06:58;6.72;;;2.58;;
17598;SDS011;8918;52.092;5.232;2023-09-19T02:09:24;7.57;;;2.22;;
17598;SDS011;8918;52.092;5.232;2023-09-19T02:11:50;3.67;;;2.15;;
17598;SDS011;8918;52.092;5.232;2023-09-19T02:14:16;6.78;;;2.55;;
17598;SDS011;8918;52.092;5.232;2023-09-19T02:16:42;5.03;;;2.00;;
17598;SDS011;8918;52.092;5.232;2023-09-19T02:19:07;8.35;;;1.92;;
17598;SDS011;8918;52.092;5.232;2023-09-19T02:21:33;6.75;;;1.95;;
17598;SDS011;8918;52.092;5.232;2023-09-19T02:23:58;9.32;;;2.38;;
17598;SDS011;8918;52.092;5.232;2023-09-19T02:26:24;7.88;;;2.40;;
17598;SDS011;8918;52.092;5.232;2023-09-19T02:28:50;8.57;;;2.50;;
17598;SDS011;8918;52.092;5.232;2023-09-19T02:31:16;8.15;;;2.60;;
17598;SDS011;8918;52.092;5.232;2023-09-19T02:33:41;9.65;;;2.78;;
17598;SDS011;8918;52.092;5.232;2023-09-19T02:36:08;9.63;;;2.72;;
17598;SDS011;8918;52.092;5.232;2023-09-19T02:38:34;12.05;;;2.83;;
17598;SDS011;8918;52.092;5.232;2023-09-19T02:40:59;8.68;;;2.83;;
17598;SDS011;8918;52.092;5.232;2023-09-19T02:43:25;10.25;;;2.63;;
17598;SDS011;8918;52.092;5.232;2023-09-19T02:45:51;12.20;;;2.83;;
17598;SDS011;8918;52.092;5.232;2023-09-19T02:48:20;9.85;;;2.63;;
17598;SDS011;8918;52.092;5.232;2023-09-19T02:50:46;12.15;;;3.05;;
17598;SDS011;8918;52.092;5.232;2023-09-19T02:53:14;11.27;;;2.80;;
17598;SDS011;8918;52.092;5.232;2023-09-19T02:55:40;11.23;;;2.80;;
17598;SDS011;8918;52.092;5.232;2023-09-19T02:58:06;9.27;;;2.90;;
17598;SDS011;8918;52.092;5.232;2023-09-19T03:00:39;10.38;;;3.03;;
17598;SDS011;8918;52.092;5.232;2023-09-19T03:03:07;11.60;;;2.80;;
17598;SDS011;8918;52.092;5.232;2023-09-19T03:05:33;8.98;;;2.90;;
17598;SDS011;8918;52.092;5.232;2023-09-19T03:07:59;14.50;;;3.13;;
17598;SDS011;8918;52.092;5.232;2023-09-19T03:10:26;10.93;;;2.90;;
17598;SDS011;8918;52.092;5.232;2023-09-19T03:12:53;11.73;;;2.95;;
17598;SDS011;8918;52.092;5.232;2023-09-19T03:15:19;14.38;;;2.80;;
17598;SDS011;8918;52.092;5.232;2023-09-19T03:17:46;12.30;;;3.50;;
17598;SDS011;8918;52.092;5.232;2023-09-19T03:20:12;10.65;;;2.90;;
17598;SDS011;8918;52.092;5.232;2023-09-19T03:22:42;12.63;;;2.83;;
17598;SDS011;8918;52.092;5.232;2023-09-19T03:25:08;12.27;;;2.88;;
17598;SDS011;8918;52.092;5.232;2023-09-19T03:27:35;8.77;;;2.40;;
17598;SDS011;8918;52.092;5.232;2023-09-19T03:30:00;13.20;;;2.90;;
17598;SDS011;8918;52.092;5.232;2023-09-19T03:32:30;9.00;;;2.80;;
17598;SDS011;8918;52.092;5.232;2023-09-19T03:34:56;8.85;;;2.63;;
17598;SDS011;8918;52.092;5.232;2023-09-19T03:37:21;12.60;;;2.90;;
17598;SDS011;8918;52.092;5.232;2023-09-19T03:39:47;10.40;;;3.15;;
17598;SDS011;8918;52.092;5.232;2023-09-19T03:42:13;8.30;;;2.70;;
17598;SDS011;8918;52.092;5.232;2023-09-19T03:44:38;9.38;;;2.65;;
17598;SDS011;8918;52.092;5.232;2023-09-19T03:47:04;7.22;;;2.42;;
17598;SDS011;8918;52.092;5.232;2023-09-19T03:49:31;9.47;;;2.70;;
17598;SDS011;8918;52.092;5.232;2023-09-19T03:51:57;9.23;;;2.92;;
17598;SDS011;8918;52.092;5.232;2023-09-19T03:54:23;12.02;;;2.60;;
17598;SDS011;8918;52.092;5.232;2023-09-19T03:56:48;11.63;;;2.50;;
17598;SDS011;8918;52.092;5.232;2023-09-19T03:59:15;8.87;;;2.50;;
17598;SDS011;8918;52.092;5.232;2023-09-19T04:01:41;9.40;;;2.60;;
17598;SDS011;8918;52.092;5.232;2023-09-19T04:04:06;12.90;;;2.37;;
17598;SDS011;8918;52.092;5.232;2023-09-19T04:06:35;7.10;;;2.40;;
17598;SDS011;8918;52.092;5.232;2023-09-19T04:09:01;9.27;;;2.30;;
17598;SDS011;8918;52.092;5.232;2023-09-19T04:11:28;12.37;;;2.57;;
17598;SDS011;8918;52.092;5.232;2023-09-19T04:13:58;10.10;;;2.60;;
17598;SDS011;8918;52.092;5.232;2023-09-19T04:16:24;7.97;;;2.40;;
17598;SDS011;8918;52.092;5.232;2023-09-19T04:18:49;11.43;;;2.87;;
17598;SDS011;8918;52.092;5.232;2023-09-19T04:21:15;9.73;;;2.53;;
17598;SDS011;8918;52.092;5.232;2023-09-19T04:23:40;9.53;;;2.70;;
17598;SDS011;8918;52.092;5.232;2023-09-19T04:26:06;9.17;;;2.73;;
17598;SDS011;8918;52.092;5.232;2023-09-19T04:28:32;8.43;;;2.50;;
17598;SDS011;8918;52.092;5.232;2023-09-19T04:30:59;10.43;;;2.47;;
17598;SDS011;8918;52.092;5.232;2023-09-19T04:33:25;13.80;;;2.60;;
17598;SDS011;8918;52.092;5.232;2023-09-19T04:35:54;11.53;;;2.90;;
17598;SDS011;8918;52.092;5.232;2023-09-19T04:38:21;9.93;;;2.30;;
17598;SDS011;8918;52.092;5.232;2023-09-19T04:40:46;9.23;;;2.90;;
17598;SDS011;8918;52.092;5.232;2023-09-19T04:43:12;13.40;;;2.90;;
17598;SDS011;8918;52.092;5.232;2023-09-19T04:45:38;6.57;;;2.20;;
17598;SDS011;8918;52.092;5.232;2023-09-19T04:48:07;12.93;;;2.53;;
17598;SDS011;8918;52.092;5.232;2023-09-19T04:50:39;9.67;;;2.37;;
17598;SDS011;8918;52.092;5.232;2023-09-19T04:53:04;8.53;;;2.40;;
17598;SDS011;8918;52.092;5.232;2023-09-19T04:55:30;12.67;;;2.70;;
17598;SDS011;8918;52.092;5.232;2023-09-19T04:57:57;12.17;;;2.80;;
17598;SDS011;8918;52.092;5.232;2023-09-19T05:00:23;10.93;;;2.47;;
17598;SDS011;8918;52.092;5.232;2023-09-19T05:02:49;10.30;;;2.50;;
17598;SDS011;8918;52.092;5.232;2023-09-19T05:05:18;10.30;;;2.77;;
17598;SDS011;8918;52.092;5.232;2023-09-19T05:07:45;7.77;;;2.43;;
17598;SDS011;8918;52.092;5.232;2023-09-19T05:10:11;14.87;;;3.13;;
17598;SDS011;8918;52.092;5.232;2023-09-19T05:12:37;6.90;;;2.47;;
17598;SDS011;8918;52.092;5.232;2023-09-19T05:15:04;10.27;;;2.70;;
17598;SDS011;8918;52.092;5.232;2023-09-19T05:17:34;8.90;;;2.60;;
17598;SDS011;8918;52.092;5.232;2023-09-19T05:20:00;8.77;;;2.53;;
17598;SDS011;8918;52.092;5.232;2023-09-19T05:22:40;9.17;;;2.63;;
17598;SDS011;8918;52.092;5.232;2023-09-19T05:25:09;10.03;;;2.60;;
17598;SDS011;8918;52.092;5.232;2023-09-19T05:27:35;11.03;;;3.10;;
17598;SDS011;8918;52.092;5.232;2023-09-19T05:30:01;13.17;;;3.00;;
17598;SDS011;8918;52.092;5.232;2023-09-19T05:32:26;8.83;;;2.67;;
17598;SDS011;8918;52.092;5.232;2023-09-19T05:34:52;9.87;;;2.87;;
17598;SDS011;8918;52.092;5.232;2023-09-19T05:37:18;8.37;;;2.67;;
17598;SDS011;8918;52.092;5.232;2023-09-19T05:39:45;10.80;;;2.83;;
17598;SDS011;8918;52.092;5.232;2023-09-19T05:42:10;9.70;;;3.00;;
17598;SDS011;8918;52.092;5.232;2023-09-19T05:44:36;8.23;;;2.70;;
17598;SDS011;8918;52.092;5.232;2023-09-19T05:47:02;10.83;;;2.40;;
17598;SDS011;8918;52.092;5.232;2023-09-19T05:49:28;11.60;;;2.83;;
17598;SDS011;8918;52.092;5.232;2023-09-19T05:51:53;15.03;;;3.00;;
17598;SDS011;8918;52.092;5.232;2023-09-19T05:54:21;11.87;;;3.40;;
17598;SDS011;8918;52.092;5.232;2023-09-19T05:56:47;9.23;;;3.00;;
17598;SDS011;8918;52.092;5.232;2023-09-19T05:59:13;9.77;;;2.60;;
17598;SDS011;8918;52.092;5.232;2023-09-19T06:01:41;9.50;;;2.70;;
17598;SDS011;8918;52.092;5.232;2023-09-19T06:04:07;10.70;;;2.83;;
17598;SDS011;8918;52.092;5.232;2023-09-19T06:06:33;9.80;;;2.70;;
17598;SDS011;8918;52.092;5.232;2023-09-19T06:09:01;10.67;;;2.70;;
17598;SDS011;8918;52.092;5.232;2023-09-19T06:11:30;8.23;;;2.47;;
17598;SDS011;8918;52.092;5.232;2023-09-19T06:13:57;11.70;;;2.70;;
17598;SDS011;8918;52.092;5.232;2023-09-19T06:16:25;13.88;;;3.13;;
17598;SDS011;8918;52.092;5.232;2023-09-19T06:18:51;9.43;;;2.50;;
17598;SDS011;8918;52.092;5.232;2023-09-19T06:21:17;12.10;;;2.75;;
17598;SDS011;8918;52.092;5.232;2023-09-19T06:23:43;12.20;;;3.00;;
17598;SDS011;8918;52.092;5.232;2023-09-19T06:26:09;12.35;;;2.85;;
17598;SDS011;8918;52.092;5.232;2023-09-19T06:28:34;9.65;;;2.55;;
17598;SDS011;8918;52.092;5.232;2023-09-19T06:31:02;13.93;;;3.00;;
17598;SDS011;8918;52.092;5.232;2023-09-19T06:33:28;7.35;;;2.72;;
17598;SDS011;8918;52.092;5.232;2023-09-19T06:35:56;10.88;;;2.92;;
17598;SDS011;8918;52.092;5.232;2023-09-19T06:38:25;12.37;;;3.00;;
17598;SDS011;8918;52.092;5.232;2023-09-19T06:40:50;10.43;;;2.40;;
17598;SDS011;8918;52.092;5.232;2023-09-19T06:43:16;8.90;;;3.05;;
17598;SDS011;8918;52.092;5.232;2023-09-19T06:45:42;13.10;;;3.00;;
17598;SDS011;8918;52.092;5.232;2023-09-19T06:48:07;8.50;;;2.77;;
17598;SDS011;8918;52.092;5.232;2023-09-19T06:50:35;16.77;;;3.47;;
17598;SDS011;8918;52.092;5.232;2023-09-19T06:53:01;16.75;;;3.63;;
17598;SDS011;8918;52.092;5.232;2023-09-19T06:55:27;9.13;;;2.53;;
17598;SDS011;8918;52.092;5.232;2023-09-19T06:57:56;11.30;;;2.92;;
17598;SDS011;8918;52.092;5.232;2023-09-19T07:00:22;13.90;;;2.95;;
17598;SDS011;8918;52.092;5.232;2023-09-19T07:03:21;9.68;;;3.05;;
17598;SDS011;8918;52.092;5.232;2023-09-19T07:05:41;11.40;;;2.70;;
17598;SDS011;8918;52.092;5.232;2023-09-19T07:08:08;10.30;;;2.70;;
17598;SDS011;8918;52.092;5.232;2023-09-19T07:10:37;9.10;;;2.90;;
17598;SDS011;8918;52.092;5.232;2023-09-19T07:13:13;10.73;;;2.90;;
17598;SDS011;8918;52.092;5.232;2023-09-19T07:15:42;11.32;;;3.00;;
17598;SDS011;8918;52.092;5.232;2023-09-19T07:18:15;7.47;;;2.60;;
17598;SDS011;8918;52.092;5.232;2023-09-19T07:20:42;10.77;;;2.90;;
17598;SDS011;8918;52.092;5.232;2023-09-19T07:23:20;11.63;;;3.15;;
17598;SDS011;8918;52.092;5.232;2023-09-19T07:25:51;17.13;;;3.00;;
17598;SDS011;8918;52.092;5.232;2023-09-19T07:28:16;9.98;;;2.80;;
17598;SDS011;8918;52.092;5.232;2023-09-19T07:30:42;11.07;;;2.60;;
17598;SDS011;8918;52.092;5.232;2023-09-19T07:33:09;12.77;;;3.00;;
17598;SDS011;8918;52.092;5.232;2023-09-19T07:35:37;13.77;;;3.35;;
17598;SDS011;8918;52.092;5.232;2023-09-19T07:38:06;9.25;;;2.85;;
17598;SDS011;8918;52.092;5.232;2023-09-19T07:40:32;11.50;;;2.88;;
17598;SDS011;8918;52.092;5.232;2023-09-19T07:42:58;11.40;;;2.95;;
17598;SDS011;8918;52.092;5.232;2023-09-19T07:45:27;11.07;;;2.80;;
17598;SDS011;8918;52.092;5.232;2023-09-19T07:47:54;13.30;;;2.95;;
17598;SDS011;8918;52.092;5.232;2023-09-19T07:50:21;11.55;;;3.05;;
17598;SDS011;8918;52.092;5.232;2023-09-19T07:52:47;13.68;;;2.78;;
17598;SDS011;8918;52.092;5.232;2023-09-19T07:55:15;11.35;;;3.15;;
17598;SDS011;8918;52.092;5.232;2023-09-19T07:57:42;10.77;;;3.10;;
17598;SDS011;8918;52.092;5.232;2023-09-19T08:00:09;15.07;;;3.33;;
17598;SDS011;8918;52.092;5.232;2023-09-19T08:02:38;11.55;;;3.30;;
17598;SDS011;8918;52.092;5.232;2023-09-19T08:05:05;11.32;;;2.95;;
17598;SDS011;8918;52.092;5.232;2023-09-19T08:07:34;12.70;;;2.90;;
17598;SDS011;8918;52.092;5.232;2023-09-19T08:10:01;12.40;;;3.63;;
17598;SDS011;8918;52.092;5.232;2023-09-19T08:12:27;11.43;;;3.03;;
17598;SDS011;8918;52.092;5.232;2023-09-19T08:14:55;13.18;;;3.10;;
17598;SDS011;8918;52.092;5.232;2023-09-19T08:17:20;13.15;;;3.25;;
17598;SDS011;8918;52.092;5.232;2023-09-19T08:19:48;10.35;;;2.88;;
17598;SDS011;8918;52.092;5.232;2023-09-19T08:22:14;14.95;;;3.28;;
17598;SDS011;8918;52.092;5.232;2023-09-19T08:24:42;13.15;;;3.20;;
17598;SDS011;8918;52.092;5.232;2023-09-19T08:27:08;14.52;;;3.15;;
17598;SDS011;8918;52.092;5.232;2023-09-19T08:29:35;15.10;;;3.30;;
17598;SDS011;8918;52.092;5.232;2023-09-19T08:32:00;12.35;;;3.30;;
17598;SDS011;8918;52.092;5.232;2023-09-19T08:34:26;14.43;;;3.53;;
17598;SDS011;8918;52.092;5.232;2023-09-19T08:36:52;16.60;;;3.22;;
17598;SDS011;8918;52.092;5.232;2023-09-19T08:39:21;12.30;;;3.30;;
17598;SDS011;8918;52.092;5.232;2023-09-19T08:41:48;12.77;;;3.45;;
17598;SDS011;8918;52.092;5.232;2023-09-19T08:44:13;9.90;;;3.25;;
17598;SDS011;8918;52.092;5.232;2023-09-19T08:46:40;10.15;;;3.05;;
17598;SDS011;8918;52.092;5.232;2023-09-19T08:49:13;10.75;;;3.28;;
17598;SDS011;8918;52.092;5.232;2023-09-19T08:51:49;14.48;;;3.47;;
17598;SDS011;8918;52.092;5.232;2023-09-19T08:54:22;14.13;;;3.28;;
17598;SDS011;8918;52.092;5.232;2023-09-19T08:56:53;14.57;;;3.17;;
17598;SDS011;8918;52.092;5.232;2023-09-19T08:59:22;11.48;;;2.88;;
17598;SDS011;8918;52.092;5.232;2023-09-19T09:01:49;10.18;;;2.80;;
17598;SDS011;8918;52.092;5.232;2023-09-19T09:04:18;7.85;;;2.97;;
17598;SDS011;8918;52.092;5.232;2023-09-19T09:06:47;10.90;;;3.05;;
17598;SDS011;8918;52.092;5.232;2023-09-19T09:09:18;12.13;;;3.28;;
17598;SDS011;8918;52.092;5.232;2023-09-19T09:11:44;19.05;;;3.55;;
17598;SDS011;8918;52.092;5.232;2023-09-19T09:14:13;12.10;;;2.90;;
17598;SDS011;8918;52.092;5.232;2023-09-19T09:16:39;9.80;;;2.63;;
17598;SDS011;8918;52.092;5.232;2023-09-19T09:19:05;10.77;;;3.00;;
17598;SDS011;8918;52.092;5.232;2023-09-19T09:21:30;8.73;;;2.78;;
17598;SDS011;8918;52.092;5.232;2023-09-19T09:24:21;10.50;;;2.88;;
17598;SDS011;8918;52.092;5.232;2023-09-19T09:26:58;11.40;;;2.78;;
17598;SDS011;8918;52.092;5.232;2023-09-19T09:29:44;11.23;;;3.15;;
17598;SDS011;8918;52.092;5.232;2023-09-19T09:32:26;9.32;;;3.20;;
17598;SDS011;8918;52.092;5.232;2023-09-19T09:35:01;10.25;;;2.67;;
17598;SDS011;8918;52.092;5.232;2023-09-19T09:37:34;10.02;;;2.88;;
17598;SDS011;8918;52.092;5.232;2023-09-19T09:40:03;11.98;;;2.95;;
17598;SDS011;8918;52.092;5.232;2023-09-19T09:42:50;11.25;;;3.40;;
17598;SDS011;8918;52.092;5.232;2023-09-19T09:45:23;14.95;;;3.22;;
17598;SDS011;8918;52.092;5.232;2023-09-19T09:47:58;9.00;;;3.13;;
17598;SDS011;8918;52.092;5.232;2023-09-19T09:50:32;11.05;;;2.92;;
17598;SDS011;8918;52.092;5.232;2023-09-19T09:53:25;12.02;;;3.10;;
17598;SDS011;8918;52.092;5.232;2023-09-19T09:56:03;12.48;;;3.15;;
17598;SDS011;8918;52.092;5.232;2023-09-19T09:58:38;10.57;;;2.90;;
17598;SDS011;8918;52.092;5.232;2023-09-19T10:01:16;10.25;;;2.88;;
17598;SDS011;8918;52.092;5.232;2023-09-19T10:03:42;9.90;;;2.90;;
17598;SDS011;8918;52.092;5.232;2023-09-19T10:06:10;14.25;;;3.30;;
17598;SDS011;8918;52.092;5.232;2023-09-19T10:14:10;11.48;;;2.95;;
17598;SDS011;8918;52.092;5.232;2023-09-19T10:16:41;8.00;;;2.40;;
17598;SDS011;8918;52.092;5.232;2023-09-19T10:19:12;13.20;;;2.85;;
17598;SDS011;8918;52.092;5.232;2023-09-19T10:21:46;11.57;;;2.85;;
17598;SDS011;8918;52.092;5.232;2023-09-19T10:24:13;8.70;;;2.67;;
17598;SDS011;8918;52.092;5.232;2023-09-19T10:26:41;12.32;;;2.60;;
17598;SDS011;8918;52.092;5.232;2023-09-19T10:29:08;12.13;;;2.55;;
17598;SDS011;8918;52.092;5.232;2023-09-19T10:31:35;11.43;;;2.80;;
17598;SDS011;8918;52.092;5.232;2023-09-19T10:34:05;10.32;;;2.55;;
17598;SDS011;8918;52.092;5.232;2023-09-19T10:36:34;12.80;;;3.00;;
17598;SDS011;8918;52.092;5.232;2023-09-19T10:39:02;9.35;;;2.58;;
17598;SDS011;8918;52.092;5.232;2023-09-19T10:41:34;9.88;;;2.58;;
17598;SDS011;8918;52.092;5.232;2023-09-19T10:44:02;8.88;;;2.53;;
17598;SDS011;8918;52.092;5.232;2023-09-19T10:46:33;7.43;;;2.45;;
17598;SDS011;8918;52.092;5.232;2023-09-19T10:48:59;8.55;;;2.63;;
17598;SDS011;8918;52.092;5.232;2023-09-19T10:51:27;8.32;;;2.40;;
17598;SDS011;8918;52.092;5.232;2023-09-19T10:53:59;7.18;;;2.25;;
17598;SDS011;8918;52.092;5.232;2023-09-19T10:56:32;9.07;;;2.50;;
17598;SDS011;8918;52.092;5.232;2023-09-19T10:59:09;8.20;;;2.17;;
17598;SDS011;8918;52.092;5.232;2023-09-19T11:01:54;7.72;;;2.33;;
17598;SDS011;8918;52.092;5.232;2023-09-19T11:04:33;9.13;;;2.40;;
17598;SDS011;8918;52.092;5.232;2023-09-19T11:07:04;8.93;;;2.25;;
17598;SDS011;8918;52.092;5.232;2023-09-19T11:09:44;6.15;;;2.58;;
17598;SDS011;8918;52.092;5.232;2023-09-19T11:14:57;10.13;;;2.30;;
17598;SDS011;8918;52.092;5.232;2023-09-19T11:17:30;5.40;;;2.03;;
17598;SDS011;8918;52.092;5.232;2023-09-19T11:30:47;6.10;;;1.90;;
17598;SDS011;8918;52.092;5.232;2023-09-19T11:33:17;7.13;;;2.10;;
17598;SDS011;8918;52.092;5.232;2023-09-19T11:41:42;5.72;;;1.70;;
17598;SDS011;8918;52.092;5.232;2023-09-19T11:46:34;4.93;;;1.52;;
17598;SDS011;8918;52.092;5.232;2023-09-19T11:49:16;5.15;;;1.75;;
17598;SDS011;8918;52.092;5.232;2023-09-19T11:51:46;6.95;;;2.00;;
17598;SDS011;8918;52.092;5.232;2023-09-19T11:54:15;5.88;;;1.80;;
17598;SDS011;8918;52.092;5.232;2023-09-19T11:56:43;9.80;;;1.90;;
17598;SDS011;8918;52.092;5.232;2023-09-19T11:59:10;8.20;;;2.00;;
17598;SDS011;8918;52.092;5.232;2023-09-19T12:01:37;5.45;;;1.50;;
17598;SDS011;8918;52.092;5.232;2023-09-19T12:04:08;5.50;;;1.80;;
17598;SDS011;8918;52.092;5.232;2023-09-19T12:06:36;7.22;;;1.75;;
17598;SDS011;8918;52.092;5.232;2023-09-19T12:09:11;7.88;;;1.65;;
17598;SDS011;8918;52.092;5.232;2023-09-19T12:11:42;6.30;;;1.70;;
17598;SDS011;8918;52.092;5.232;2023-09-19T12:14:09;4.90;;;1.40;;
17598;SDS011;8918;52.092;5.232;2023-09-19T12:16:35;4.63;;;1.88;;
17598;SDS011;8918;52.092;5.232;2023-09-19T12:19:19;4.70;;;1.60;;
17598;SDS011;8918;52.092;5.232;2023-09-19T12:21:56;4.38;;;1.65;;
17598;SDS011;8918;52.092;5.232;2023-09-19T12:24:24;6.72;;;1.73;;
17598;SDS011;8918;52.092;5.232;2023-09-19T12:26:51;7.00;;;1.90;;
17598;SDS011;8918;52.092;5.232;2023-09-19T12:29:22;6.22;;;1.70;;
17598;SDS011;8918;52.092;5.232;2023-09-19T12:31:52;6.10;;;1.90;;
17598;SDS011;8918;52.092;5.232;2023-09-19T12:34:25;6.13;;;1.60;;
17598;SDS011;8918;52.092;5.232;2023-09-19T12:37:05;5.78;;;1.65;;
17598;SDS011;8918;52.092;5.232;2023-09-19T12:39:45;7.43;;;1.95;;
17598;SDS011;8918;52.092;5.232;2023-09-19T12:42:14;5.65;;;1.40;;
17598;SDS011;8918;52.092;5.232;2023-09-19T12:44:44;6.80;;;2.05;;
17598;SDS011;8918;52.092;5.232;2023-09-19T12:47:17;5.55;;;1.50;;
17598;SDS011;8918;52.092;5.232;2023-09-19T12:52:41;6.43;;;1.60;;
17598;SDS011;8918;52.092;5.232;2023-09-19T12:58:01;7.20;;;1.52;;
17598;SDS011;8918;52.092;5.232;2023-09-19T13:00:38;6.55;;;1.80;;
17598;SDS011;8918;52.092;5.232;2023-09-19T13:04:09;5.28;;;2.10;;
17598;SDS011;8918;52.092;5.232;2023-09-19T13:06:02;5.18;;;1.90;;
17598;SDS011;8918;52.092;5.232;2023-09-19T13:08:30;4.47;;;1.70;;
17598;SDS011;8918;52.092;5.232;2023-09-19T13:13:38;5.03;;;1.67;;
17598;SDS011;8918;52.092;5.232;2023-09-19T13:16:09;5.18;;;1.60;;
17598;SDS011;8918;52.092;5.232;2023-09-19T13:18:46;7.82;;;1.90;;
17598;SDS011;8918;52.092;5.232;2023-09-19T13:24:23;5.28;;;1.80;;
17598;SDS011;8918;52.092;5.232;2023-09-19T13:26:52;4.55;;;1.70;;
17598;SDS011;8918;52.092;5.232;2023-09-19T13:29:18;4.20;;;1.55;;
17598;SDS011;8918;52.092;5.232;2023-09-19T13:31:48;6.05;;;1.90;;
17598;SDS011;8918;52.092;5.232;2023-09-19T13:34:19;6.78;;;1.77;;
17598;SDS011;8918;52.092;5.232;2023-09-19T13:36:46;8.30;;;1.90;;
17598;SDS011;8918;52.092;5.232;2023-09-19T13:39:13;3.33;;;1.40;;
17598;SDS011;8918;52.092;5.232;2023-09-19T13:41:41;5.00;;;1.60;;
17598;SDS011;8918;52.092;5.232;2023-09-19T13:44:07;5.15;;;1.52;;
17598;SDS011;8918;52.092;5.232;2023-09-19T13:46:35;5.07;;;1.70;;
17598;SDS011;8918;52.092;5.232;2023-09-19T13:49:01;5.45;;;1.48;;
17598;SDS011;8918;52.092;5.232;2023-09-19T13:51:28;4.65;;;1.77;;
17598;SDS011;8918;52.092;5.232;2023-09-19T13:53:55;3.80;;;1.75;;
17598;SDS011;8918;52.092;5.232;2023-09-19T13:56:21;4.25;;;1.55;;
17598;SDS011;8918;52.092;5.232;2023-09-19T13:58:46;4.40;;;1.80;;
17598;SDS011;8918;52.092;5.232;2023-09-19T14:01:12;3.05;;;1.50;;
17598;SDS011;8918;52.092;5.232;2023-09-19T14:03:41;2.97;;;1.50;;
17598;SDS011;8918;52.092;5.232;2023-09-19T14:06:11;4.22;;;1.75;;
17598;SDS011;8918;52.092;5.232;2023-09-19T14:08:37;3.20;;;1.70;;
17598;SDS011;8918;52.092;5.232;2023-09-19T14:11:07;5.25;;;1.60;;
17598;SDS011;8918;52.092;5.232;2023-09-19T14:13:33;3.67;;;1.50;;
17598;SDS011;8918;52.092;5.232;2023-09-19T14:16:05;4.20;;;1.50;;
17598;SDS011;8918;52.092;5.232;2023-09-19T14:18:34;4.30;;;1.52;;
17598;SDS011;8918;52.092;5.232;2023-09-19T14:21:04;7.00;;;1.88;;
17598;SDS011;8918;52.092;5.232;2023-09-19T14:23:34;4.10;;;1.77;;
17598;SDS011;8918;52.092;5.232;2023-09-19T14:26:08;5.85;;;2.10;;
17598;SDS011;8918;52.092;5.232;2023-09-19T14:28:34;6.78;;;2.30;;
17598;SDS011;8918;52.092;5.232;2023-09-19T14:31:06;7.03;;;2.22;;
17598;SDS011;8918;52.092;5.232;2023-09-19T14:33:33;5.95;;;2.00;;
17598;SDS011;8918;52.092;5.232;2023-09-19T14:36:02;6.75;;;2.00;;
17598;SDS011;8918;52.092;5.232;2023-09-19T14:38:32;8.05;;;2.20;;
17598;SDS011;8918;52.092;5.232;2023-09-19T14:41:04;7.65;;;2.10;;
17598;SDS011;8918;52.092;5.232;2023-09-19T14:43:31;4.03;;;2.05;;
17598;SDS011;8918;52.092;5.232;2023-09-19T14:45:57;5.53;;;2.10;;
17598;SDS011;8918;52.092;5.232;2023-09-19T14:48:32;5.78;;;2.42;;
17598;SDS011;8918;52.092;5.232;2023-09-19T14:51:02;6.68;;;2.40;;
17598;SDS011;8918;52.092;5.232;2023-09-19T14:53:29;6.05;;;2.22;;
17598;SDS011;8918;52.092;5.232;2023-09-19T14:55:55;9.77;;;2.90;;
17598;SDS011;8918;52.092;5.232;2023-09-19T14:58:21;7.68;;;2.30;;
17598;SDS011;8918;52.092;5.232;2023-09-19T15:00:46;5.55;;;2.05;;
17598;SDS011;8918;52.092;5.232;2023-09-19T15:03:12;4.95;;;2.08;;
17598;SDS011;8918;52.092;5.232;2023-09-19T15:05:39;6.57;;;2.42;;
17598;SDS011;8918;52.092;5.232;2023-09-19T15:08:05;5.35;;;2.30;;
17598;SDS011;8918;52.092;5.232;2023-09-19T15:10:31;8.70;;;2.30;;
17598;SDS011;8918;52.092;5.232;2023-09-19T15:12:57;6.13;;;2.38;;
17598;SDS011;8918;52.092;5.232;2023-09-19T15:15:22;5.13;;;2.13;;
17598;SDS011;8918;52.092;5.232;2023-09-19T15:17:48;6.35;;;2.50;;
17598;SDS011;8918;52.092;5.232;2023-09-19T15:20:13;7.55;;;2.15;;
17598;SDS011;8918;52.092;5.232;2023-09-19T15:22:39;6.10;;;2.45;;
17598;SDS011;8918;52.092;5.232;2023-09-19T15:25:05;8.27;;;2.40;;
17598;SDS011;8918;52.092;5.232;2023-09-19T15:27:31;6.75;;;2.20;;
17598;SDS011;8918;52.092;5.232;2023-09-19T15:29:59;7.07;;;2.50;;
17598;SDS011;8918;52.092;5.232;2023-09-19T15:32:25;7.85;;;2.42;;
17598;SDS011;8918;52.092;5.232;2023-09-19T15:34:51;6.13;;;2.10;;
17598;SDS011;8918;52.092;5.232;2023-09-19T15:37:17;6.20;;;2.40;;
17598;SDS011;8918;52.092;5.232;2023-09-19T15:39:42;6.15;;;2.35;;
17598;SDS011;8918;52.092;5.232;2023-09-19T15:42:09;7.85;;;2.45;;
17598;SDS011;8918;52.092;5.232;2023-09-19T15:44:36;6.05;;;2.30;;
17598;SDS011;8918;52.092;5.232;2023-09-19T15:47:02;5.60;;;2.20;;
17598;SDS011;8918;52.092;5.232;2023-09-19T15:49:30;5.05;;;1.95;;
17598;SDS011;8918;52.092;5.232;2023-09-19T15:51:56;6.60;;;2.30;;
17598;SDS011;8918;52.092;5.232;2023-09-19T15:54:21;6.57;;;2.60;;
17598;SDS011;8918;52.092;5.232;2023-09-19T15:56:50;7.90;;;2.60;;
17598;SDS011;8918;52.092;5.232;2023-09-19T15:59:16;6.22;;;2.20;;
17598;SDS011;8918;52.092;5.232;2023-09-19T16:01:42;5.97;;;2.20;;
17598;SDS011;8918;52.092;5.232;2023-09-19T16:04:09;8.98;;;2.15;;
17598;SDS011;8918;52.092;5.232;2023-09-19T16:06:35;7.70;;;2.30;;